sensor_id;sensor_type;location;lat;lon;timestamp;temperature;humidity
10247;DHT22;5168;47.854;7.944;2023-04-03T00:06:22;3.70;99.90
10247;DHT22;5168;47.854;7.944;2023-04-03T00:08:48;3.50;99.90
10247;DHT22;5168;47.854;7.944;2023-04-03T00:13:41;3.50;99.90
10247;DHT22;5168;47.854;7.944;2023-04-03T00:16:08;4.10;99.90
10247;DHT22;5168;47.854;7.944;2023-04-03T00:18:34;3.70;99.90
10247;DHT22;5168;47.854;7.944;2023-04-03T00:25:52;3.50;99.90
10247;DHT22;5168;47.854;7.944;2023-04-03T00:28:18;3.50;99.90
10247;DHT22;5168;47.854;7.944;2023-04-03T00:30:44;3.50;99.90
10247;DHT22;5168;47.854;7.944;2023-04-03T00:33:12;3.70;99.90
10247;DHT22;5168;47.854;7.944;2023-04-03T00:35:38;3.50;99.90
10247;DHT22;5168;47.854;7.944;2023-04-03T00:40:34;3.50;99.90
10247;DHT22;5168;47.854;7.944;2023-04-03T00:43:00;3.20;99.90
10247;DHT22;5168;47.854;7.944;2023-04-03T00:45:30;3.50;99.90
10247;DHT22;5168;47.854;7.944;2023-04-03T00:47:56;3.40;99.90
10247;DHT22;5168;47.854;7.944;2023-04-03T00:50:22;3.30;99.90
10247;DHT22;5168;47.854;7.944;2023-04-03T00:52:48;3.40;99.90
10247;DHT22;5168;47.854;7.944;2023-04-03T00:55:15;3.20;99.90
10247;DHT22;5168;47.854;7.944;2023-04-03T01:00:11;3.20;99.90
10247;DHT22;5168;47.854;7.944;2023-04-03T01:05:06;3.20;99.90
10247;DHT22;5168;47.854;7.944;2023-04-03T01:10:02;3.20;99.90
10247;DHT22;5168;47.854;7.944;2023-04-03T01:12:34;3.00;99.90
10247;DHT22;5168;47.854;7.944;2023-04-03T01:15:10;3.00;99.90
10247;DHT22;5168;47.854;7.944;2023-04-03T01:17:43;3.20;99.90
10247;DHT22;5168;47.854;7.944;2023-04-03T01:25:51;2.90;99.90
10247;DHT22;5168;47.854;7.944;2023-04-03T01:30:53;2.90;99.90
10247;DHT22;5168;47.854;7.944;2023-04-03T01:33:21;2.90;99.90
10247;DHT22;5168;47.854;7.944;2023-04-03T01:40:40;2.90;99.90
10247;DHT22;5168;47.854;7.944;2023-04-03T01:43:05;3.10;99.90
10247;DHT22;5168;47.854;7.944;2023-04-03T01:45:31;3.00;99.90
10247;DHT22;5168;47.854;7.944;2023-04-03T01:47:56;2.50;99.90
10247;DHT22;5168;47.854;7.944;2023-04-03T01:55:14;2.60;99.90
10247;DHT22;5168;47.854;7.944;2023-04-03T02:00:06;2.80;99.90
10247;DHT22;5168;47.854;7.944;2023-04-03T02:02:33;2.80;99.90
10247;DHT22;5168;47.854;7.944;2023-04-03T02:04:58;2.10;99.90
10247;DHT22;5168;47.854;7.944;2023-04-03T02:07:24;2.80;99.90
10247;DHT22;5168;47.854;7.944;2023-04-03T02:09:49;3.30;99.90
10247;DHT22;5168;47.854;7.944;2023-04-03T02:19:34;2.60;99.90
10247;DHT22;5168;47.854;7.944;2023-04-03T02:22:01;2.40;99.90
10247;DHT22;5168;47.854;7.944;2023-04-03T02:26:53;2.30;99.90
10247;DHT22;5168;47.854;7.944;2023-04-03T02:31:45;2.50;99.90
10247;DHT22;5168;47.854;7.944;2023-04-03T02:34:10;2.60;99.90
10247;DHT22;5168;47.854;7.944;2023-04-03T02:41:29;2.40;99.90
10247;DHT22;5168;47.854;7.944;2023-04-03T02:44:00;2.40;99.90
10247;DHT22;5168;47.854;7.944;2023-04-03T02:46:26;2.10;99.90
10247;DHT22;5168;47.854;7.944;2023-04-03T02:48:51;2.10;99.90
10247;DHT22;5168;47.854;7.944;2023-04-03T02:51:17;2.30;99.90
10247;DHT22;5168;47.854;7.944;2023-04-03T02:58:35;1.90;99.90
10247;DHT22;5168;47.854;7.944;2023-04-03T03:01:00;1.90;99.90
10247;DHT22;5168;47.854;7.944;2023-04-03T03:03:26;1.30;99.90
10247;DHT22;5168;47.854;7.944;2023-04-03T03:06:02;1.90;99.90
10247;DHT22;5168;47.854;7.944;2023-04-03T03:13:19;2.00;99.90
10247;DHT22;5168;47.854;7.944;2023-04-03T03:15:45;2.00;99.90
10247;DHT22;5168;47.854;7.944;2023-04-03T03:18:10;1.90;99.90
10247;DHT22;5168;47.854;7.944;2023-04-03T03:25:28;1.90;99.90
10247;DHT22;5168;47.854;7.944;2023-04-03T03:27:53;1.70;99.90
10247;DHT22;5168;47.854;7.944;2023-04-03T03:30:19;1.70;99.90
10247;DHT22;5168;47.854;7.944;2023-04-03T03:40:03;1.50;99.90
10247;DHT22;5168;47.854;7.944;2023-04-03T03:42:28;1.80;99.90
10247;DHT22;5168;47.854;7.944;2023-04-03T03:44:54;1.60;99.90
10247;DHT22;5168;47.854;7.944;2023-04-03T03:47:20;1.70;99.90
10247;DHT22;5168;47.854;7.944;2023-04-03T03:52:11;1.70;99.90
10247;DHT22;5168;47.854;7.944;2023-04-03T03:54:37;1.40;99.90
10247;DHT22;5168;47.854;7.944;2023-04-03T03:57:03;1.70;99.90
10247;DHT22;5168;47.854;7.944;2023-04-03T03:59:29;1.60;99.90
10247;DHT22;5168;47.854;7.944;2023-04-03T04:01:54;1.60;99.90
10247;DHT22;5168;47.854;7.944;2023-04-03T04:04:20;1.70;99.90
10247;DHT22;5168;47.854;7.944;2023-04-03T04:14:06;1.30;99.90
10247;DHT22;5168;47.854;7.944;2023-04-03T04:16:31;1.60;99.90
10247;DHT22;5168;47.854;7.944;2023-04-03T04:18:57;1.60;99.90
10247;DHT22;5168;47.854;7.944;2023-04-03T04:23:49;1.50;99.90
10247;DHT22;5168;47.854;7.944;2023-04-03T04:26:14;1.50;99.90
10247;DHT22;5168;47.854;7.944;2023-04-03T04:28:40;1.50;99.90
10247;DHT22;5168;47.854;7.944;2023-04-03T04:35:57;1.30;99.90
10247;DHT22;5168;47.854;7.944;2023-04-03T04:38:23;1.20;99.90
10247;DHT22;5168;47.854;7.944;2023-04-03T04:40:48;1.50;99.90
10247;DHT22;5168;47.854;7.944;2023-04-03T04:45:41;1.20;99.90
10247;DHT22;5168;47.854;7.944;2023-04-03T04:48:07;0.90;99.90
10247;DHT22;5168;47.854;7.944;2023-04-03T04:50:32;1.10;99.90
10247;DHT22;5168;47.854;7.944;2023-04-03T04:52:58;1.90;99.90
10247;DHT22;5168;47.854;7.944;2023-04-03T04:55:24;1.10;99.90
10247;DHT22;5168;47.854;7.944;2023-04-03T04:57:49;1.10;99.90
10247;DHT22;5168;47.854;7.944;2023-04-03T05:00:15;1.10;99.90
10247;DHT22;5168;47.854;7.944;2023-04-03T05:05:07;1.10;99.90
10247;DHT22;5168;47.854;7.944;2023-04-03T05:10:01;1.00;99.90
10247;DHT22;5168;47.854;7.944;2023-04-03T05:17:19;0.90;99.90
10247;DHT22;5168;47.854;7.944;2023-04-03T05:22:11;0.80;99.90
10247;DHT22;5168;47.854;7.944;2023-04-03T05:24:37;0.80;99.90
10247;DHT22;5168;47.854;7.944;2023-04-03T05:27:03;0.70;99.90
10247;DHT22;5168;47.854;7.944;2023-04-03T05:29:28;0.60;99.90
10247;DHT22;5168;47.854;7.944;2023-04-03T05:31:54;1.60;99.90
10247;DHT22;5168;47.854;7.944;2023-04-03T05:34:19;0.70;99.90
10247;DHT22;5168;47.854;7.944;2023-04-03T05:36:45;0.70;99.90
10247;DHT22;5168;47.854;7.944;2023-04-03T05:46:28;1.00;99.90
10247;DHT22;5168;47.854;7.944;2023-04-03T05:51:28;0.90;99.90
10247;DHT22;5168;47.854;7.944;2023-04-03T05:54:13;0.80;99.90
10247;DHT22;5168;47.854;7.944;2023-04-03T05:56:41;0.90;99.90
10247;DHT22;5168;47.854;7.944;2023-04-03T05:59:06;0.90;99.90
10247;DHT22;5168;47.854;7.944;2023-04-03T06:01:32;0.90;99.90
10247;DHT22;5168;47.854;7.944;2023-04-03T06:03:59;0.70;99.90
10247;DHT22;5168;47.854;7.944;2023-04-03T06:06:25;0.90;99.90
10247;DHT22;5168;47.854;7.944;2023-04-03T06:08:51;0.70;99.90
10247;DHT22;5168;47.854;7.944;2023-04-03T06:11:16;0.70;99.90
10247;DHT22;5168;47.854;7.944;2023-04-03T06:13:42;0.70;99.90
10247;DHT22;5168;47.854;7.944;2023-04-03T06:16:11;0.50;99.90
10247;DHT22;5168;47.854;7.944;2023-04-03T06:18:39;0.90;99.90
10247;DHT22;5168;47.854;7.944;2023-04-03T06:21:06;0.60;99.90
10247;DHT22;5168;47.854;7.944;2023-04-03T06:28:25;0.70;99.90
10247;DHT22;5168;47.854;7.944;2023-04-03T06:33:17;0.60;99.90
10247;DHT22;5168;47.854;7.944;2023-04-03T06:35:42;0.60;99.90
10247;DHT22;5168;47.854;7.944;2023-04-03T06:38:08;1.10;99.90
10247;DHT22;5168;47.854;7.944;2023-04-03T06:40:35;1.10;99.90
10247;DHT22;5168;47.854;7.944;2023-04-03T06:43:01;1.00;99.90
10247;DHT22;5168;47.854;7.944;2023-04-03T06:45:26;1.00;99.90
10247;DHT22;5168;47.854;7.944;2023-04-03T06:47:53;1.00;99.90
10247;DHT22;5168;47.854;7.944;2023-04-03T06:50:18;0.90;99.90
10247;DHT22;5168;47.854;7.944;2023-04-03T06:55:10;1.20;99.90
10247;DHT22;5168;47.854;7.944;2023-04-03T07:00:04;1.20;99.90
10247;DHT22;5168;47.854;7.944;2023-04-03T07:02:30;1.10;99.90
10247;DHT22;5168;47.854;7.944;2023-04-03T07:04:56;1.10;99.90
10247;DHT22;5168;47.854;7.944;2023-04-03T07:07:21;1.10;99.90
10247;DHT22;5168;47.854;7.944;2023-04-03T07:09:47;1.30;99.90
10247;DHT22;5168;47.854;7.944;2023-04-03T07:21:57;2.10;99.90
10247;DHT22;5168;47.854;7.944;2023-04-03T07:24:23;1.50;99.90
10247;DHT22;5168;47.854;7.944;2023-04-03T07:26:52;1.90;99.90
10247;DHT22;5168;47.854;7.944;2023-04-03T07:29:18;1.60;99.90
10247;DHT22;5168;47.854;7.944;2023-04-03T07:31:45;1.90;99.90
10247;DHT22;5168;47.854;7.944;2023-04-03T07:34:11;1.70;99.90
10247;DHT22;5168;47.854;7.944;2023-04-03T07:36:36;2.00;99.90
10247;DHT22;5168;47.854;7.944;2023-04-03T07:39:03;1.70;99.90
10247;DHT22;5168;47.854;7.944;2023-04-03T07:43:55;1.50;99.90
10247;DHT22;5168;47.854;7.944;2023-04-03T07:46:22;1.60;99.90
10247;DHT22;5168;47.854;7.944;2023-04-03T07:48:48;1.60;99.90
10247;DHT22;5168;47.854;7.944;2023-04-03T07:51:14;1.70;99.90
10247;DHT22;5168;47.854;7.944;2023-04-03T07:53:40;1.90;99.90
10247;DHT22;5168;47.854;7.944;2023-04-03T07:56:06;1.90;99.90
10247;DHT22;5168;47.854;7.944;2023-04-03T07:58:32;2.50;99.90
10247;DHT22;5168;47.854;7.944;2023-04-03T08:00:58;2.10;99.90
10247;DHT22;5168;47.854;7.944;2023-04-03T08:08:19;2.50;99.90
10247;DHT22;5168;47.854;7.944;2023-04-03T08:10:52;2.10;99.90
10247;DHT22;5168;47.854;7.944;2023-04-03T08:13:18;2.10;99.90
10247;DHT22;5168;47.854;7.944;2023-04-03T08:18:10;2.40;99.90
10247;DHT22;5168;47.854;7.944;2023-04-03T08:20:38;2.40;99.90
10247;DHT22;5168;47.854;7.944;2023-04-03T08:23:06;2.60;99.90
10247;DHT22;5168;47.854;7.944;2023-04-03T08:25:31;2.20;99.90
10247;DHT22;5168;47.854;7.944;2023-04-03T08:35:14;2.20;99.90
10247;DHT22;5168;47.854;7.944;2023-04-03T08:37:40;2.50;99.90
10247;DHT22;5168;47.854;7.944;2023-04-03T08:40:10;2.50;99.90
10247;DHT22;5168;47.854;7.944;2023-04-03T08:50:06;2.90;99.90
10247;DHT22;5168;47.854;7.944;2023-04-03T08:52:42;2.70;99.90
10247;DHT22;5168;47.854;7.944;2023-04-03T08:55:34;2.70;99.90
10247;DHT22;5168;47.854;7.944;2023-04-03T08:58:15;3.20;99.90
10247;DHT22;5168;47.854;7.944;2023-04-03T09:00:48;3.50;99.90
10247;DHT22;5168;47.854;7.944;2023-04-03T09:03:17;4.00;99.90
10247;DHT22;5168;47.854;7.944;2023-04-03T09:05:57;4.50;99.90
10247;DHT22;5168;47.854;7.944;2023-04-03T09:08:24;4.50;99.90
10247;DHT22;5168;47.854;7.944;2023-04-03T09:11:04;4.60;99.90
10247;DHT22;5168;47.854;7.944;2023-04-03T09:13:52;4.40;99.90
10247;DHT22;5168;47.854;7.944;2023-04-03T09:16:46;4.90;99.90
10247;DHT22;5168;47.854;7.944;2023-04-03T09:21:58;4.70;99.90
10247;DHT22;5168;47.854;7.944;2023-04-03T09:24:25;4.00;99.90
10247;DHT22;5168;47.854;7.944;2023-04-03T09:26:57;3.90;99.90
10247;DHT22;5168;47.854;7.944;2023-04-03T09:29:26;3.80;99.90
10247;DHT22;5168;47.854;7.944;2023-04-03T09:32:00;4.20;99.90
10247;DHT22;5168;47.854;7.944;2023-04-03T09:36:58;4.80;99.90
10247;DHT22;5168;47.854;7.944;2023-04-03T09:39:27;4.80;99.90
10247;DHT22;5168;47.854;7.944;2023-04-03T09:42:31;5.40;99.90
10247;DHT22;5168;47.854;7.944;2023-04-03T09:44:59;5.60;99.90
10247;DHT22;5168;47.854;7.944;2023-04-03T09:47:27;5.00;99.90
10247;DHT22;5168;47.854;7.944;2023-04-03T09:50:18;4.90;99.90
10247;DHT22;5168;47.854;7.944;2023-04-03T09:52:47;5.40;99.90
10247;DHT22;5168;47.854;7.944;2023-04-03T09:55:19;5.20;99.90
10247;DHT22;5168;47.854;7.944;2023-04-03T09:57:47;4.50;99.90
10247;DHT22;5168;47.854;7.944;2023-04-03T10:00:23;4.20;99.90
10247;DHT22;5168;47.854;7.944;2023-04-03T10:02:54;3.70;99.90
10247;DHT22;5168;47.854;7.944;2023-04-03T10:05:41;3.70;99.90
10247;DHT22;5168;47.854;7.944;2023-04-03T10:10:37;2.80;99.90
10247;DHT22;5168;47.854;7.944;2023-04-03T10:16:17;2.80;99.90
10247;DHT22;5168;47.854;7.944;2023-04-03T10:21:29;2.40;99.90
10247;DHT22;5168;47.854;7.944;2023-04-03T10:24:09;2.50;99.90
10247;DHT22;5168;47.854;7.944;2023-04-03T10:26:58;2.80;99.90
10247;DHT22;5168;47.854;7.944;2023-04-03T10:34:43;2.10;99.90
10247;DHT22;5168;47.854;7.944;2023-04-03T10:37:39;2.80;99.90
10247;DHT22;5168;47.854;7.944;2023-04-03T10:43:09;2.30;99.90
10247;DHT22;5168;47.854;7.944;2023-04-03T10:45:57;2.30;99.90
10247;DHT22;5168;47.854;7.944;2023-04-03T10:48:28;2.50;99.90
10247;DHT22;5168;47.854;7.944;2023-04-03T10:51:24;1.90;99.90
10247;DHT22;5168;47.854;7.944;2023-04-03T10:59:21;2.10;99.90
10247;DHT22;5168;47.854;7.944;2023-04-03T11:01:53;2.30;99.90
10247;DHT22;5168;47.854;7.944;2023-04-03T11:04:20;2.30;99.90
10247;DHT22;5168;47.854;7.944;2023-04-03T11:06:53;2.40;99.90
10247;DHT22;5168;47.854;7.944;2023-04-03T11:09:25;2.50;99.90
10247;DHT22;5168;47.854;7.944;2023-04-03T11:11:55;2.60;99.90
10247;DHT22;5168;47.854;7.944;2023-04-03T11:14:31;2.80;99.90
10247;DHT22;5168;47.854;7.944;2023-04-03T11:20:16;3.10;99.90
10247;DHT22;5168;47.854;7.944;2023-04-03T11:22:45;3.00;99.90
10247;DHT22;5168;47.854;7.944;2023-04-03T11:27:45;3.30;99.90
10247;DHT22;5168;47.854;7.944;2023-04-03T11:30:30;2.80;99.90
10247;DHT22;5168;47.854;7.944;2023-04-03T11:35:34;2.70;99.90
10247;DHT22;5168;47.854;7.944;2023-04-03T11:38:02;2.80;99.90
10247;DHT22;5168;47.854;7.944;2023-04-03T11:40:33;2.60;99.90
10247;DHT22;5168;47.854;7.944;2023-04-03T11:43:20;2.80;99.90
10247;DHT22;5168;47.854;7.944;2023-04-03T11:50:46;2.60;99.90
10247;DHT22;5168;47.854;7.944;2023-04-03T11:58:20;2.60;99.90
10247;DHT22;5168;47.854;7.944;2023-04-03T12:14:03;2.60;99.90
10247;DHT22;5168;47.854;7.944;2023-04-03T12:16:41;2.80;99.90
10247;DHT22;5168;47.854;7.944;2023-04-03T12:24:26;3.00;99.90
10247;DHT22;5168;47.854;7.944;2023-04-03T12:27:05;3.00;99.90
10247;DHT22;5168;47.854;7.944;2023-04-03T12:29:38;3.40;99.90
10247;DHT22;5168;47.854;7.944;2023-04-03T12:32:31;3.10;99.90
10247;DHT22;5168;47.854;7.944;2023-04-03T12:43:29;3.60;99.90
10247;DHT22;5168;47.854;7.944;2023-04-03T12:49:18;3.50;99.90
10247;DHT22;5168;47.854;7.944;2023-04-03T12:51:39;2.70;99.90
10247;DHT22;5168;47.854;7.944;2023-04-03T12:54:37;2.70;99.90
10247;DHT22;5168;47.854;7.944;2023-04-03T12:57:12;2.60;99.90
10247;DHT22;5168;47.854;7.944;2023-04-03T12:59:38;2.60;99.90
10247;DHT22;5168;47.854;7.944;2023-04-03T13:02:22;2.40;99.90
10247;DHT22;5168;47.854;7.944;2023-04-03T13:04:49;2.70;99.90
10247;DHT22;5168;47.854;7.944;2023-04-03T13:12:26;2.70;99.90
10247;DHT22;5168;47.854;7.944;2023-04-03T13:14:54;2.40;99.90
10247;DHT22;5168;47.854;7.944;2023-04-03T13:17:21;2.30;99.90
10247;DHT22;5168;47.854;7.944;2023-04-03T13:19:47;2.10;99.90
10247;DHT22;5168;47.854;7.944;2023-04-03T13:22:41;2.10;99.90
10247;DHT22;5168;47.854;7.944;2023-04-03T13:25:11;2.20;99.90
10247;DHT22;5168;47.854;7.944;2023-04-03T13:27:38;2.30;99.90
10247;DHT22;5168;47.854;7.944;2023-04-03T13:30:27;2.40;99.90
10247;DHT22;5168;47.854;7.944;2023-04-03T13:32:57;2.60;99.90
10247;DHT22;5168;47.854;7.944;2023-04-03T13:35:44;2.60;99.90
10247;DHT22;5168;47.854;7.944;2023-04-03T13:40:54;2.50;99.90
10247;DHT22;5168;47.854;7.944;2023-04-03T13:43:25;2.60;99.90
10247;DHT22;5168;47.854;7.944;2023-04-03T13:51:18;2.50;99.90
10247;DHT22;5168;47.854;7.944;2023-04-03T13:58:57;2.30;99.90
10247;DHT22;5168;47.854;7.944;2023-04-03T14:01:24;2.20;99.90
10247;DHT22;5168;47.854;7.944;2023-04-03T14:03:56;2.60;99.90
10247;DHT22;5168;47.854;7.944;2023-04-03T14:06:23;2.20;99.90
10247;DHT22;5168;47.854;7.944;2023-04-03T14:08:49;1.80;99.90
10247;DHT22;5168;47.854;7.944;2023-04-03T14:13:46;1.90;99.90
10247;DHT22;5168;47.854;7.944;2023-04-03T14:16:32;2.30;99.90
10247;DHT22;5168;47.854;7.944;2023-04-03T14:18:58;2.40;99.90
10247;DHT22;5168;47.854;7.944;2023-04-03T14:21:24;2.20;99.90
10247;DHT22;5168;47.854;7.944;2023-04-03T14:26:21;1.80;99.90
10247;DHT22;5168;47.854;7.944;2023-04-03T14:28:50;2.30;99.90
10247;DHT22;5168;47.854;7.944;2023-04-03T14:31:17;2.30;99.90
10247;DHT22;5168;47.854;7.944;2023-04-03T14:33:43;2.20;99.90
10247;DHT22;5168;47.854;7.944;2023-04-03T14:36:17;2.00;99.90
10247;DHT22;5168;47.854;7.944;2023-04-03T14:38:44;3.20;99.90
10247;DHT22;5168;47.854;7.944;2023-04-03T14:41:15;2.50;99.90
10247;DHT22;5168;47.854;7.944;2023-04-03T14:46:32;2.70;99.90
10247;DHT22;5168;47.854;7.944;2023-04-03T14:48:58;2.70;99.90
10247;DHT22;5168;47.854;7.944;2023-04-03T14:51:24;2.50;99.90
10247;DHT22;5168;47.854;7.944;2023-04-03T14:53:51;2.50;99.90
10247;DHT22;5168;47.854;7.944;2023-04-03T14:56:19;2.40;99.90
10247;DHT22;5168;47.854;7.944;2023-04-03T14:58:48;2.50;99.90
10247;DHT22;5168;47.854;7.944;2023-04-03T15:01:17;2.20;99.90
10247;DHT22;5168;47.854;7.944;2023-04-03T15:03:42;1.70;99.90
10247;DHT22;5168;47.854;7.944;2023-04-03T15:06:13;2.10;99.90
10247;DHT22;5168;47.854;7.944;2023-04-03T15:11:07;2.00;99.90
10247;DHT22;5168;47.854;7.944;2023-04-03T15:13:32;2.20;99.90
10247;DHT22;5168;47.854;7.944;2023-04-03T15:15:58;2.30;99.90
10247;DHT22;5168;47.854;7.944;2023-04-03T15:18:36;2.10;99.90
10247;DHT22;5168;47.854;7.944;2023-04-03T15:21:03;1.90;99.90
10247;DHT22;5168;47.854;7.944;2023-04-03T15:25:55;2.00;99.90
10247;DHT22;5168;47.854;7.944;2023-04-03T15:28:28;2.10;99.90
10247;DHT22;5168;47.854;7.944;2023-04-03T15:30:55;2.20;99.90
10247;DHT22;5168;47.854;7.944;2023-04-03T15:33:21;1.80;99.90
10247;DHT22;5168;47.854;7.944;2023-04-03T15:35:47;1.90;99.90
10247;DHT22;5168;47.854;7.944;2023-04-03T15:40:38;1.80;99.90
10247;DHT22;5168;47.854;7.944;2023-04-03T15:43:06;1.60;99.90
10247;DHT22;5168;47.854;7.944;2023-04-03T15:45:32;1.80;99.90
10247;DHT22;5168;47.854;7.944;2023-04-03T15:47:58;1.80;99.90
10247;DHT22;5168;47.854;7.944;2023-04-03T15:50:24;1.50;99.90
10247;DHT22;5168;47.854;7.944;2023-04-03T15:52:51;1.90;99.90
10247;DHT22;5168;47.854;7.944;2023-04-03T15:55:24;1.40;99.90
10247;DHT22;5168;47.854;7.944;2023-04-03T16:02:43;1.60;99.90
10247;DHT22;5168;47.854;7.944;2023-04-03T16:05:10;1.60;99.90
10247;DHT22;5168;47.854;7.944;2023-04-03T16:07:40;1.50;99.90
10247;DHT22;5168;47.854;7.944;2023-04-03T16:10:07;2.00;99.90
10247;DHT22;5168;47.854;7.944;2023-04-03T16:12:33;1.50;99.90
10247;DHT22;5168;47.854;7.944;2023-04-03T16:14:59;1.50;99.90
10247;DHT22;5168;47.854;7.944;2023-04-03T16:17:26;1.60;99.90
10247;DHT22;5168;47.854;7.944;2023-04-03T16:19:51;1.50;99.90
10247;DHT22;5168;47.854;7.944;2023-04-03T16:22:17;1.30;99.90
10247;DHT22;5168;47.854;7.944;2023-04-03T16:29:34;1.40;99.90
10247;DHT22;5168;47.854;7.944;2023-04-03T16:32:01;1.00;99.90
10247;DHT22;5168;47.854;7.944;2023-04-03T16:34:27;1.20;99.90
10247;DHT22;5168;47.854;7.944;2023-04-03T16:36:55;1.30;99.90
10247;DHT22;5168;47.854;7.944;2023-04-03T16:39:21;1.00;99.90
10247;DHT22;5168;47.854;7.944;2023-04-03T16:41:46;1.00;99.90
10247;DHT22;5168;47.854;7.944;2023-04-03T16:46:38;1.10;99.90
10247;DHT22;5168;47.854;7.944;2023-04-03T16:49:04;0.80;99.90
10247;DHT22;5168;47.854;7.944;2023-04-03T16:53:57;0.70;99.90
10247;DHT22;5168;47.854;7.944;2023-04-03T16:56:23;0.90;99.90
10247;DHT22;5168;47.854;7.944;2023-04-03T17:01:19;0.70;99.90
10247;DHT22;5168;47.854;7.944;2023-04-03T17:06:14;0.60;99.90
10247;DHT22;5168;47.854;7.944;2023-04-03T17:08:46;0.70;99.90
10247;DHT22;5168;47.854;7.944;2023-04-03T17:11:12;0.60;99.90
10247;DHT22;5168;47.854;7.944;2023-04-03T17:13:38;0.50;99.90
10247;DHT22;5168;47.854;7.944;2023-04-03T17:16:06;0.10;99.90
10247;DHT22;5168;47.854;7.944;2023-04-03T17:18:33;0.50;99.90
10247;DHT22;5168;47.854;7.944;2023-04-03T17:21:00;0.60;99.90
10247;DHT22;5168;47.854;7.944;2023-04-03T17:23:27;0.50;99.90
10247;DHT22;5168;47.854;7.944;2023-04-03T17:25:54;0.70;99.90
10247;DHT22;5168;47.854;7.944;2023-04-03T17:28:23;0.40;99.90
10247;DHT22;5168;47.854;7.944;2023-04-03T17:30:57;0.30;99.90
10247;DHT22;5168;47.854;7.944;2023-04-03T17:33:24;0.00;99.90
10247;DHT22;5168;47.854;7.944;2023-04-03T17:35:50;0.00;99.90
10247;DHT22;5168;47.854;7.944;2023-04-03T17:40:41;0.00;99.90
10247;DHT22;5168;47.854;7.944;2023-04-03T17:45:35;0.00;99.90
10247;DHT22;5168;47.854;7.944;2023-04-03T17:52:54;-0.30;99.90
10247;DHT22;5168;47.854;7.944;2023-04-03T17:55:20;-0.10;99.90
10247;DHT22;5168;47.854;7.944;2023-04-03T17:57:45;-0.30;99.90
10247;DHT22;5168;47.854;7.944;2023-04-03T18:00:12;-0.30;99.90
10247;DHT22;5168;47.854;7.944;2023-04-03T18:09:56;-0.30;99.90
10247;DHT22;5168;47.854;7.944;2023-04-03T18:12:23;-0.10;99.90
10247;DHT22;5168;47.854;7.944;2023-04-03T18:17:16;-0.30;99.90
10247;DHT22;5168;47.854;7.944;2023-04-03T18:19:43;-0.10;99.90
10247;DHT22;5168;47.854;7.944;2023-04-03T18:22:13;-0.30;99.90
10247;DHT22;5168;47.854;7.944;2023-04-03T18:24:40;-0.30;99.90
10247;DHT22;5168;47.854;7.944;2023-04-03T18:27:15;-0.50;99.90
10247;DHT22;5168;47.854;7.944;2023-04-03T18:29:44;-0.70;99.90
10247;DHT22;5168;47.854;7.944;2023-04-03T18:32:13;-0.60;99.90
10247;DHT22;5168;47.854;7.944;2023-04-03T18:42:02;-0.70;99.90
10247;DHT22;5168;47.854;7.944;2023-04-03T18:44:30;-0.70;99.90
10247;DHT22;5168;47.854;7.944;2023-04-03T18:46:56;-0.70;99.90
10247;DHT22;5168;47.854;7.944;2023-04-03T18:49:26;-0.50;99.90
10247;DHT22;5168;47.854;7.944;2023-04-03T18:51:53;-0.40;99.90
10247;DHT22;5168;47.854;7.944;2023-04-03T18:56:45;-0.80;99.90
10247;DHT22;5168;47.854;7.944;2023-04-03T18:59:12;-0.90;99.90
10247;DHT22;5168;47.854;7.944;2023-04-03T19:01:37;-0.80;99.90
10247;DHT22;5168;47.854;7.944;2023-04-03T19:04:03;-0.70;99.90
10247;DHT22;5168;47.854;7.944;2023-04-03T19:06:29;-1.10;99.90
10247;DHT22;5168;47.854;7.944;2023-04-03T19:16:14;-0.90;99.90
10247;DHT22;5168;47.854;7.944;2023-04-03T19:18:40;-1.20;99.90
10247;DHT22;5168;47.854;7.944;2023-04-03T19:21:05;-1.20;99.90
10247;DHT22;5168;47.854;7.944;2023-04-03T19:23:31;-0.50;99.90
10247;DHT22;5168;47.854;7.944;2023-04-03T19:26:03;-1.00;99.90
10247;DHT22;5168;47.854;7.944;2023-04-03T19:28:29;-1.10;99.90
10247;DHT22;5168;47.854;7.944;2023-04-03T19:30:54;-0.90;99.90
10247;DHT22;5168;47.854;7.944;2023-04-03T19:40:40;-1.60;99.90
10247;DHT22;5168;47.854;7.944;2023-04-03T19:43:10;-1.00;99.90
10247;DHT22;5168;47.854;7.944;2023-04-03T19:45:36;-1.10;99.90
10247;DHT22;5168;47.854;7.944;2023-04-03T19:48:03;-1.00;99.90
10247;DHT22;5168;47.854;7.944;2023-04-03T19:57:48;-1.00;99.90
10247;DHT22;5168;47.854;7.944;2023-04-03T20:00:14;-1.30;99.90
10247;DHT22;5168;47.854;7.944;2023-04-03T20:02:39;-1.00;99.90
10247;DHT22;5168;47.854;7.944;2023-04-03T20:05:06;-1.20;99.90
10247;DHT22;5168;47.854;7.944;2023-04-03T20:14:49;-1.50;99.90
10247;DHT22;5168;47.854;7.944;2023-04-03T20:17:15;-1.20;99.90
10247;DHT22;5168;47.854;7.944;2023-04-03T20:19:40;-1.20;99.90
10247;DHT22;5168;47.854;7.944;2023-04-03T20:22:06;-1.20;99.90
10247;DHT22;5168;47.854;7.944;2023-04-03T20:31:51;-1.30;99.90
10247;DHT22;5168;47.854;7.944;2023-04-03T20:34:18;-1.80;99.90
10247;DHT22;5168;47.854;7.944;2023-04-03T20:36:44;-1.30;99.90
10247;DHT22;5168;47.854;7.944;2023-04-03T20:39:12;-1.50;99.90
10247;DHT22;5168;47.854;7.944;2023-04-03T20:41:37;-1.40;99.90
10247;DHT22;5168;47.854;7.944;2023-04-03T20:44:04;-1.50;99.90
10247;DHT22;5168;47.854;7.944;2023-04-03T20:46:30;-1.30;99.90
10247;DHT22;5168;47.854;7.944;2023-04-03T20:48:56;-1.50;99.90
10247;DHT22;5168;47.854;7.944;2023-04-03T20:51:22;-0.90;99.90
10247;DHT22;5168;47.854;7.944;2023-04-03T20:53:48;-1.30;99.90
10247;DHT22;5168;47.854;7.944;2023-04-03T20:56:15;-1.40;99.90
10247;DHT22;5168;47.854;7.944;2023-04-03T20:58:41;-1.50;99.90
10247;DHT22;5168;47.854;7.944;2023-04-03T21:01:21;-1.40;99.90
10247;DHT22;5168;47.854;7.944;2023-04-03T21:21:23;-1.80;99.90
10247;DHT22;5168;47.854;7.944;2023-04-03T21:23:50;-2.20;99.90
10247;DHT22;5168;47.854;7.944;2023-04-03T21:26:19;-1.60;99.90
10247;DHT22;5168;47.854;7.944;2023-04-03T21:28:46;-1.50;99.90
10247;DHT22;5168;47.854;7.944;2023-04-03T21:31:12;-2.00;99.90
10247;DHT22;5168;47.854;7.944;2023-04-03T21:33:39;-1.60;99.90
10247;DHT22;5168;47.854;7.944;2023-04-03T21:36:05;-1.70;99.90
10247;DHT22;5168;47.854;7.944;2023-04-03T21:38:30;-1.90;99.90
10247;DHT22;5168;47.854;7.944;2023-04-03T21:40:56;-1.50;99.90
10247;DHT22;5168;47.854;7.944;2023-04-03T21:43:23;-1.30;99.90
10247;DHT22;5168;47.854;7.944;2023-04-03T21:45:53;-1.00;99.90
10247;DHT22;5168;47.854;7.944;2023-04-03T21:48:19;-1.70;99.90
10247;DHT22;5168;47.854;7.944;2023-04-03T21:50:45;-1.70;99.90
10247;DHT22;5168;47.854;7.944;2023-04-03T21:53:19;-1.20;99.90
10247;DHT22;5168;47.854;7.944;2023-04-03T21:55:52;-1.90;99.90
10247;DHT22;5168;47.854;7.944;2023-04-03T22:03:10;-2.30;99.90
10247;DHT22;5168;47.854;7.944;2023-04-03T22:05:37;-2.00;99.90
10247;DHT22;5168;47.854;7.944;2023-04-03T22:12:55;-1.80;99.90
10247;DHT22;5168;47.854;7.944;2023-04-03T22:17:47;-2.20;99.90
10247;DHT22;5168;47.854;7.944;2023-04-03T22:22:38;-2.00;99.90
10247;DHT22;5168;47.854;7.944;2023-04-03T22:25:04;-1.80;99.90
10247;DHT22;5168;47.854;7.944;2023-04-03T22:27:30;-1.70;99.90
10247;DHT22;5168;47.854;7.944;2023-04-03T22:32:21;-2.10;99.90
10247;DHT22;5168;47.854;7.944;2023-04-03T22:34:47;-1.90;99.90
10247;DHT22;5168;47.854;7.944;2023-04-03T22:37:12;-1.90;99.90
10247;DHT22;5168;47.854;7.944;2023-04-03T22:39:38;-2.20;99.90
10247;DHT22;5168;47.854;7.944;2023-04-03T22:42:03;-2.20;99.90
10247;DHT22;5168;47.854;7.944;2023-04-03T22:44:31;-2.50;99.90